sensor_id;sensor_type;location;lat;lon;timestamp;P1;durP1;ratioP1;P2;durP2;ratioP2
44272;SDS011;29964;17.182;-96.766;2023-02-11T00:00:22;3.73;;;3.00;;
44272;SDS011;29964;17.182;-96.766;2023-02-11T00:02:48;7.43;;;3.30;;
44272;SDS011;29964;17.182;-96.766;2023-02-11T00:05:15;5.97;;;2.90;;
44272;SDS011;29964;17.182;-96.766;2023-02-11T00:07:42;5.23;;;3.20;;
44272;SDS011;29964;17.182;-96.766;2023-02-11T00:10:08;18.83;;;3.83;;
44272;SDS011;29964;17.182;-96.766;2023-02-11T00:12:35;4.93;;;3.13;;
44272;SDS011;29964;17.182;-96.766;2023-02-11T00:15:03;3.50;;;2.43;;
44272;SDS011;29964;17.182;-96.766;2023-02-11T00:17:30;5.00;;;2.83;;
44272;SDS011;29964;17.182;-96.766;2023-02-11T00:19:57;4.40;;;3.10;;
44272;SDS011;29964;17.182;-96.766;2023-02-11T00:22:24;4.60;;;3.30;;
44272;SDS011;29964;17.182;-96.766;2023-02-11T00:24:50;5.30;;;3.27;;
44272;SDS011;29964;17.182;-96.766;2023-02-11T00:27:17;7.87;;;3.60;;
44272;SDS011;29964;17.182;-96.766;2023-02-11T00:29:44;4.83;;;3.20;;
44272;SDS011;29964;17.182;-96.766;2023-02-11T00:32:10;3.93;;;2.77;;
44272;SDS011;29964;17.182;-96.766;2023-02-11T00:34:37;3.23;;;2.67;;
44272;SDS011;29964;17.182;-96.766;2023-02-11T00:37:04;3.00;;;2.47;;
44272;SDS011;29964;17.182;-96.766;2023-02-11T00:39:31;4.10;;;3.07;;
44272;SDS011;29964;17.182;-96.766;2023-02-11T00:41:58;3.83;;;2.77;;
44272;SDS011;29964;17.182;-96.766;2023-02-11T00:44:24;18.70;;;3.80;;
44272;SDS011;29964;17.182;-96.766;2023-02-11T00:46:51;3.20;;;2.70;;
44272;SDS011;29964;17.182;-96.766;2023-02-11T00:49:18;4.33;;;2.73;;
44272;SDS011;29964;17.182;-96.766;2023-02-11T00:51:45;4.50;;;3.23;;
44272;SDS011;29964;17.182;-96.766;2023-02-11T00:54:11;4.03;;;2.70;;
44272;SDS011;29964;17.182;-96.766;2023-02-11T00:56:38;3.20;;;2.60;;
44272;SDS011;29964;17.182;-96.766;2023-02-11T00:59:05;8.43;;;3.43;;
44272;SDS011;29964;17.182;-96.766;2023-02-11T01:01:31;5.13;;;3.30;;
44272;SDS011;29964;17.182;-96.766;2023-02-11T01:03:59;4.27;;;2.63;;
44272;SDS011;29964;17.182;-96.766;2023-02-11T01:06:25;4.43;;;3.10;;
44272;SDS011;29964;17.182;-96.766;2023-02-11T01:08:52;4.50;;;3.07;;
44272;SDS011;29964;17.182;-96.766;2023-02-11T01:11:19;3.97;;;2.97;;
44272;SDS011;29964;17.182;-96.766;2023-02-11T01:13:46;5.20;;;3.27;;
44272;SDS011;29964;17.182;-96.766;2023-02-11T01:16:13;3.03;;;2.47;;
44272;SDS011;29964;17.182;-96.766;2023-02-11T01:18:40;2.80;;;2.30;;
44272;SDS011;29964;17.182;-96.766;2023-02-11T01:21:08;14.40;;;3.87;;
44272;SDS011;29964;17.182;-96.766;2023-02-11T01:23:35;3.63;;;2.63;;
44272;SDS011;29964;17.182;-96.766;2023-02-11T01:26:02;6.57;;;3.23;;
44272;SDS011;29964;17.182;-96.766;2023-02-11T01:28:29;7.13;;;3.83;;
44272;SDS011;29964;17.182;-96.766;2023-02-11T01:30:56;5.03;;;3.03;;
44272;SDS011;29964;17.182;-96.766;2023-02-11T01:33:23;6.80;;;3.63;;
44272;SDS011;29964;17.182;-96.766;2023-02-11T01:35:50;9.20;;;3.33;;
44272;SDS011;29964;17.182;-96.766;2023-02-11T01:38:18;3.97;;;2.80;;
44272;SDS011;29964;17.182;-96.766;2023-02-11T01:40:52;5.43;;;2.87;;
44272;SDS011;29964;17.182;-96.766;2023-02-11T01:43:19;6.15;;;3.05;;
44272;SDS011;29964;17.182;-96.766;2023-02-11T01:48:19;3.87;;;3.00;;
44272;SDS011;29964;17.182;-96.766;2023-02-11T01:50:47;9.23;;;3.97;;
44272;SDS011;29964;17.182;-96.766;2023-02-11T01:53:16;8.23;;;3.57;;
44272;SDS011;29964;17.182;-96.766;2023-02-11T01:56:02;5.07;;;3.70;;
44272;SDS011;29964;17.182;-96.766;2023-02-11T01:58:47;9.67;;;4.23;;
44272;SDS011;29964;17.182;-96.766;2023-02-11T02:01:18;6.20;;;4.00;;
44272;SDS011;29964;17.182;-96.766;2023-02-11T02:03:47;4.67;;;2.93;;
44272;SDS011;29964;17.182;-96.766;2023-02-11T02:06:18;4.43;;;3.10;;
44272;SDS011;29964;17.182;-96.766;2023-02-11T02:08:50;4.70;;;3.30;;
44272;SDS011;29964;17.182;-96.766;2023-02-11T02:11:18;8.27;;;3.17;;
44272;SDS011;29964;17.182;-96.766;2023-02-11T02:13:45;3.37;;;2.57;;
44272;SDS011;29964;17.182;-96.766;2023-02-11T02:16:14;4.53;;;3.43;;
44272;SDS011;29964;17.182;-96.766;2023-02-11T02:26:17;4.70;;;2.63;;
44272;SDS011;29964;17.182;-96.766;2023-02-11T02:34:29;3.97;;;2.47;;
44272;SDS011;29964;17.182;-96.766;2023-02-11T02:37:03;3.00;;;2.47;;
44272;SDS011;29964;17.182;-96.766;2023-02-11T02:39:53;6.43;;;2.87;;
44272;SDS011;29964;17.182;-96.766;2023-02-11T02:42:26;4.57;;;3.10;;
44272;SDS011;29964;17.182;-96.766;2023-02-11T02:44:54;4.27;;;3.03;;
44272;SDS011;29964;17.182;-96.766;2023-02-11T02:47:22;4.13;;;2.27;;
44272;SDS011;29964;17.182;-96.766;2023-02-11T02:49:49;4.30;;;2.60;;
44272;SDS011;29964;17.182;-96.766;2023-02-11T02:55:16;5.43;;;2.73;;
44272;SDS011;29964;17.182;-96.766;2023-02-11T03:00:42;5.43;;;2.43;;
44272;SDS011;29964;17.182;-96.766;2023-02-11T03:08:52;3.70;;;2.27;;
44272;SDS011;29964;17.182;-96.766;2023-02-11T03:11:28;7.47;;;2.55;;
44272;SDS011;29964;17.182;-96.766;2023-02-11T03:14:02;3.20;;;2.35;;
44272;SDS011;29964;17.182;-96.766;2023-02-11T03:16:30;9.97;;;4.93;;
44272;SDS011;29964;17.182;-96.766;2023-02-11T03:19:14;7.30;;;3.90;;
44272;SDS011;29964;17.182;-96.766;2023-02-11T03:21:47;7.97;;;4.97;;
44272;SDS011;29964;17.182;-96.766;2023-02-11T03:24:23;6.22;;;4.20;;
44272;SDS011;29964;17.182;-96.766;2023-02-11T03:26:55;16.30;;;5.00;;
44272;SDS011;29964;17.182;-96.766;2023-02-11T03:32:28;9.43;;;4.67;;
44272;SDS011;29964;17.182;-96.766;2023-02-11T03:35:13;8.63;;;4.07;;
44272;SDS011;29964;17.182;-96.766;2023-02-11T03:37:52;3.70;;;2.63;;
44272;SDS011;29964;17.182;-96.766;2023-02-11T03:40:28;17.17;;;4.67;;
44272;SDS011;29964;17.182;-96.766;2023-02-11T03:42:59;5.37;;;3.73;;
44272;SDS011;29964;17.182;-96.766;2023-02-11T03:45:29;5.07;;;2.80;;
44272;SDS011;29964;17.182;-96.766;2023-02-11T03:48:04;3.13;;;2.53;;
44272;SDS011;29964;17.182;-96.766;2023-02-11T03:50:36;6.40;;;3.13;;
44272;SDS011;29964;17.182;-96.766;2023-02-11T03:53:10;3.03;;;2.33;;
44272;SDS011;29964;17.182;-96.766;2023-02-11T03:55:38;3.13;;;2.20;;
44272;SDS011;29964;17.182;-96.766;2023-02-11T03:58:12;4.50;;;3.33;;
44272;SDS011;29964;17.182;-96.766;2023-02-11T04:00:45;6.50;;;2.33;;
44272;SDS011;29964;17.182;-96.766;2023-02-11T04:03:19;3.67;;;2.60;;
44272;SDS011;29964;17.182;-96.766;2023-02-11T04:05:49;5.37;;;3.20;;
44272;SDS011;29964;17.182;-96.766;2023-02-11T04:08:20;2.27;;;1.97;;
44272;SDS011;29964;17.182;-96.766;2023-02-11T04:10:47;4.80;;;2.50;;
44272;SDS011;29964;17.182;-96.766;2023-02-11T04:13:17;16.00;;;4.43;;
44272;SDS011;29964;17.182;-96.766;2023-02-11T04:15:45;7.70;;;3.30;;
44272;SDS011;29964;17.182;-96.766;2023-02-11T04:18:24;3.70;;;3.20;;
44272;SDS011;29964;17.182;-96.766;2023-02-11T04:21:00;9.53;;;5.17;;
44272;SDS011;29964;17.182;-96.766;2023-02-11T04:23:31;15.23;;;3.33;;
44272;SDS011;29964;17.182;-96.766;2023-02-11T04:25:58;6.43;;;4.03;;
44272;SDS011;29964;17.182;-96.766;2023-02-11T04:28:28;7.23;;;4.97;;
44272;SDS011;29964;17.182;-96.766;2023-02-11T04:30:58;4.67;;;4.13;;
44272;SDS011;29964;17.182;-96.766;2023-02-11T04:33:26;7.27;;;4.70;;
44272;SDS011;29964;17.182;-96.766;2023-02-11T04:35:53;5.43;;;3.67;;
44272;SDS011;29964;17.182;-96.766;2023-02-11T04:38:20;5.60;;;4.17;;
44272;SDS011;29964;17.182;-96.766;2023-02-11T04:40:51;6.63;;;4.77;;
44272;SDS011;29964;17.182;-96.766;2023-02-11T04:43:24;6.23;;;4.83;;
44272;SDS011;29964;17.182;-96.766;2023-02-11T04:45:51;7.40;;;4.43;;
44272;SDS011;29964;17.182;-96.766;2023-02-11T04:48:23;5.27;;;4.23;;
44272;SDS011;29964;17.182;-96.766;2023-02-11T04:50:54;7.00;;;4.57;;
44272;SDS011;29964;17.182;-96.766;2023-02-11T04:53:24;5.60;;;4.47;;
44272;SDS011;29964;17.182;-96.766;2023-02-11T04:55:52;8.07;;;4.13;;
44272;SDS011;29964;17.182;-96.766;2023-02-11T04:58:19;5.53;;;4.10;;
44272;SDS011;29964;17.182;-96.766;2023-02-11T05:00:46;7.07;;;4.73;;
44272;SDS011;29964;17.182;-96.766;2023-02-11T05:03:14;7.40;;;4.27;;
44272;SDS011;29964;17.182;-96.766;2023-02-11T05:05:42;6.30;;;4.57;;
44272;SDS011;29964;17.182;-96.766;2023-02-11T05:08:09;4.80;;;3.83;;
44272;SDS011;29964;17.182;-96.766;2023-02-11T05:10:37;10.50;;;4.37;;
44272;SDS011;29964;17.182;-96.766;2023-02-11T05:13:07;3.97;;;3.03;;
44272;SDS011;29964;17.182;-96.766;2023-02-11T05:15:35;4.50;;;3.73;;
44272;SDS011;29964;17.182;-96.766;2023-02-11T05:18:02;4.80;;;3.37;;
44272;SDS011;29964;17.182;-96.766;2023-02-11T05:20:29;4.87;;;4.17;;
44272;SDS011;29964;17.182;-96.766;2023-02-11T05:22:57;10.63;;;2.53;;
44272;SDS011;29964;17.182;-96.766;2023-02-11T05:25:27;9.57;;;4.13;;
44272;SDS011;29964;17.182;-96.766;2023-02-11T05:27:58;5.80;;;4.07;;
44272;SDS011;29964;17.182;-96.766;2023-02-11T05:30:25;4.37;;;3.10;;
44272;SDS011;29964;17.182;-96.766;2023-02-11T05:32:55;4.53;;;3.20;;
44272;SDS011;29964;17.182;-96.766;2023-02-11T05:35:26;7.37;;;3.53;;
44272;SDS011;29964;17.182;-96.766;2023-02-11T05:37:56;4.30;;;3.30;;
44272;SDS011;29964;17.182;-96.766;2023-02-11T05:40:26;4.80;;;2.80;;
44272;SDS011;29964;17.182;-96.766;2023-02-11T05:42:56;4.23;;;2.20;;
44272;SDS011;29964;17.182;-96.766;2023-02-11T05:45:23;4.03;;;1.97;;
44272;SDS011;29964;17.182;-96.766;2023-02-11T05:47:54;3.60;;;2.83;;
44272;SDS011;29964;17.182;-96.766;2023-02-11T05:50:21;2.00;;;1.50;;
44272;SDS011;29964;17.182;-96.766;2023-02-11T05:52:48;3.07;;;1.80;;
44272;SDS011;29964;17.182;-96.766;2023-02-11T05:55:15;1.90;;;1.40;;
44272;SDS011;29964;17.182;-96.766;2023-02-11T05:57:42;3.93;;;2.10;;
44272;SDS011;29964;17.182;-96.766;2023-02-11T06:00:10;4.33;;;2.20;;
44272;SDS011;29964;17.182;-96.766;2023-02-11T06:02:37;7.77;;;2.53;;
44272;SDS011;29964;17.182;-96.766;2023-02-11T06:05:05;3.53;;;1.30;;
44272;SDS011;29964;17.182;-96.766;2023-02-11T06:07:32;2.10;;;1.60;;
44272;SDS011;29964;17.182;-96.766;2023-02-11T06:09:59;2.40;;;1.67;;
44272;SDS011;29964;17.182;-96.766;2023-02-11T06:12:29;1.57;;;1.30;;
44272;SDS011;29964;17.182;-96.766;2023-02-11T06:14:59;1.63;;;1.17;;
44272;SDS011;29964;17.182;-96.766;2023-02-11T06:17:27;3.27;;;1.10;;
44272;SDS011;29964;17.182;-96.766;2023-02-11T06:20:04;5.10;;;1.13;;
44272;SDS011;29964;17.182;-96.766;2023-02-11T06:22:32;1.53;;;1.07;;
44272;SDS011;29964;17.182;-96.766;2023-02-11T06:25:02;0.83;;;0.50;;
44272;SDS011;29964;17.182;-96.766;2023-02-11T06:27:32;1.23;;;1.00;;
44272;SDS011;29964;17.182;-96.766;2023-02-11T06:30:11;1.53;;;1.03;;
44272;SDS011;29964;17.182;-96.766;2023-02-11T06:32:42;1.70;;;0.93;;
44272;SDS011;29964;17.182;-96.766;2023-02-11T06:35:26;1.27;;;0.87;;
44272;SDS011;29964;17.182;-96.766;2023-02-11T06:38:03;2.10;;;0.70;;
44272;SDS011;29964;17.182;-96.766;2023-02-11T06:40:30;7.63;;;0.97;;
44272;SDS011;29964;17.182;-96.766;2023-02-11T06:43:07;0.20;;;0.20;;
44272;SDS011;29964;17.182;-96.766;2023-02-11T06:45:35;0.60;;;0.40;;
44272;SDS011;29964;17.182;-96.766;2023-02-11T06:48:08;0.67;;;0.40;;
44272;SDS011;29964;17.182;-96.766;2023-02-11T06:50:35;0.60;;;0.40;;
44272;SDS011;29964;17.182;-96.766;2023-02-11T06:53:03;0.20;;;0.20;;
44272;SDS011;29964;17.182;-96.766;2023-02-11T06:55:33;0.83;;;0.57;;
44272;SDS011;29964;17.182;-96.766;2023-02-11T06:58:04;0.63;;;0.40;;
44272;SDS011;29964;17.182;-96.766;2023-02-11T07:00:31;0.20;;;0.13;;
44272;SDS011;29964;17.182;-96.766;2023-02-11T07:02:59;0.90;;;0.40;;
44272;SDS011;29964;17.182;-96.766;2023-02-11T07:05:29;0.00;;;0.00;;
44272;SDS011;29964;17.182;-96.766;2023-02-11T07:07:58;0.17;;;0.17;;
44272;SDS011;29964;17.182;-96.766;2023-02-11T07:10:29;0.17;;;0.10;;
44272;SDS011;29964;17.182;-96.766;2023-02-11T07:13:02;0.33;;;0.20;;
44272;SDS011;29964;17.182;-96.766;2023-02-11T07:15:30;0.70;;;0.40;;
44272;SDS011;29964;17.182;-96.766;2023-02-11T07:18:00;0.27;;;0.23;;
44272;SDS011;29964;17.182;-96.766;2023-02-11T07:20:30;0.20;;;0.20;;
44272;SDS011;29964;17.182;-96.766;2023-02-11T07:22:58;0.50;;;0.20;;
44272;SDS011;29964;17.182;-96.766;2023-02-11T07:25:28;0.13;;;0.10;;
44272;SDS011;29964;17.182;-96.766;2023-02-11T07:28:04;0.00;;;0.00;;
44272;SDS011;29964;17.182;-96.766;2023-02-11T07:30:35;0.10;;;0.10;;
44272;SDS011;29964;17.182;-96.766;2023-02-11T07:33:11;0.00;;;0.00;;
44272;SDS011;29964;17.182;-96.766;2023-02-11T07:35:44;0.10;;;0.10;;
44272;SDS011;29964;17.182;-96.766;2023-02-11T07:38:15;0.33;;;0.27;;
44272;SDS011;29964;17.182;-96.766;2023-02-11T07:40:42;0.30;;;0.13;;
44272;SDS011;29964;17.182;-96.766;2023-02-11T07:43:09;0.43;;;0.27;;
44272;SDS011;29964;17.182;-96.766;2023-02-11T07:45:46;1.37;;;0.40;;
44272;SDS011;29964;17.182;-96.766;2023-02-11T07:48:22;3.30;;;0.30;;
44272;SDS011;29964;17.182;-96.766;2023-02-11T07:51:03;1.10;;;0.37;;
44272;SDS011;29964;17.182;-96.766;2023-02-11T07:53:31;0.10;;;0.00;;
44272;SDS011;29964;17.182;-96.766;2023-02-11T07:55:59;0.20;;;0.20;;
44272;SDS011;29964;17.182;-96.766;2023-02-11T07:58:32;0.00;;;0.00;;
44272;SDS011;29964;17.182;-96.766;2023-02-11T08:01:04;0.00;;;0.00;;
44272;SDS011;29964;17.182;-96.766;2023-02-11T08:03:35;0.03;;;0.00;;
44272;SDS011;29964;17.182;-96.766;2023-02-11T08:06:10;0.38;;;0.25;;
44272;SDS011;29964;17.182;-96.766;2023-02-11T08:08:44;0.00;;;0.00;;
44272;SDS011;29964;17.182;-96.766;2023-02-11T08:11:16;0.70;;;0.37;;
44272;SDS011;29964;17.182;-96.766;2023-02-11T08:13:44;0.00;;;0.00;;
44272;SDS011;29964;17.182;-96.766;2023-02-11T08:16:30;0.00;;;0.00;;
44272;SDS011;29964;17.182;-96.766;2023-02-11T08:18:59;0.20;;;0.10;;
44272;SDS011;29964;17.182;-96.766;2023-02-11T08:21:27;0.00;;;0.00;;
44272;SDS011;29964;17.182;-96.766;2023-02-11T08:23:55;0.00;;;0.00;;
44272;SDS011;29964;17.182;-96.766;2023-02-11T08:26:23;0.00;;;0.00;;
44272;SDS011;29964;17.182;-96.766;2023-02-11T08:28:51;0.00;;;0.00;;
44272;SDS011;29964;17.182;-96.766;2023-02-11T08:31:23;0.00;;;0.00;;
44272;SDS011;29964;17.182;-96.766;2023-02-11T08:33:51;0.00;;;0.00;;
44272;SDS011;29964;17.182;-96.766;2023-02-11T08:36:20;0.23;;;0.17;;
44272;SDS011;29964;17.182;-96.766;2023-02-11T08:38:48;0.13;;;0.07;;
44272;SDS011;29964;17.182;-96.766;2023-02-11T08:41:22;0.00;;;0.00;;
44272;SDS011;29964;17.182;-96.766;2023-02-11T08:43:50;0.00;;;0.00;;
44272;SDS011;29964;17.182;-96.766;2023-02-11T08:46:18;0.00;;;0.00;;
44272;SDS011;29964;17.182;-96.766;2023-02-11T08:48:46;0.00;;;0.00;;
44272;SDS011;29964;17.182;-96.766;2023-02-11T08:51:19;0.00;;;0.00;;
44272;SDS011;29964;17.182;-96.766;2023-02-11T08:53:48;0.00;;;0.00;;
44272;SDS011;29964;17.182;-96.766;2023-02-11T08:56:16;0.00;;;0.00;;
44272;SDS011;29964;17.182;-96.766;2023-02-11T08:58:46;0.00;;;0.00;;
44272;SDS011;29964;17.182;-96.766;2023-02-11T09:01:31;0.20;;;0.10;;
44272;SDS011;29964;17.182;-96.766;2023-02-11T09:03:59;4.28;;;0.30;;
44272;SDS011;29964;17.182;-96.766;2023-02-11T09:06:27;0.73;;;0.20;;
44272;SDS011;29964;17.182;-96.766;2023-02-11T09:08:57;0.00;;;0.00;;
44272;SDS011;29964;17.182;-96.766;2023-02-11T09:11:34;0.03;;;0.03;;
44272;SDS011;29964;17.182;-96.766;2023-02-11T09:14:02;0.03;;;0.00;;
44272;SDS011;29964;17.182;-96.766;2023-02-11T09:16:31;0.60;;;0.17;;
44272;SDS011;29964;17.182;-96.766;2023-02-11T09:18:59;0.23;;;0.17;;
44272;SDS011;29964;17.182;-96.766;2023-02-11T09:21:27;0.00;;;0.00;;
44272;SDS011;29964;17.182;-96.766;2023-02-11T09:23:55;0.00;;;0.00;;
44272;SDS011;29964;17.182;-96.766;2023-02-11T09:26:29;0.00;;;0.00;;
44272;SDS011;29964;17.182;-96.766;2023-02-11T09:28:57;0.00;;;0.00;;
44272;SDS011;29964;17.182;-96.766;2023-02-11T09:31:25;0.00;;;0.00;;
44272;SDS011;29964;17.182;-96.766;2023-02-11T09:33:57;0.37;;;0.30;;
44272;SDS011;29964;17.182;-96.766;2023-02-11T09:39:01;0.60;;;0.33;;
44272;SDS011;29964;17.182;-96.766;2023-02-11T09:44:30;0.47;;;0.33;;
44272;SDS011;29964;17.182;-96.766;2023-02-11T09:47:06;0.43;;;0.13;;
44272;SDS011;29964;17.182;-96.766;2023-02-11T09:49:41;2.27;;;0.30;;
44272;SDS011;29964;17.182;-96.766;2023-02-11T09:57:25;0.03;;;0.00;;
44272;SDS011;29964;17.182;-96.766;2023-02-11T10:00:00;0.00;;;0.00;;
44272;SDS011;29964;17.182;-96.766;2023-02-11T10:08:01;0.00;;;0.00;;
44272;SDS011;29964;17.182;-96.766;2023-02-11T10:10:57;0.17;;;0.10;;
44272;SDS011;29964;17.182;-96.766;2023-02-11T10:13:25;0.00;;;0.00;;
44272;SDS011;29964;17.182;-96.766;2023-02-11T10:21:24;0.50;;;0.30;;
44272;SDS011;29964;17.182;-96.766;2023-02-11T10:23:55;0.07;;;0.07;;
44272;SDS011;29964;17.182;-96.766;2023-02-11T10:26:25;0.17;;;0.17;;
44272;SDS011;29964;17.182;-96.766;2023-02-11T10:29:05;0.53;;;0.20;;
44272;SDS011;29964;17.182;-96.766;2023-02-11T10:31:40;0.10;;;0.07;;
44272;SDS011;29964;17.182;-96.766;2023-02-11T10:34:10;0.30;;;0.10;;
44272;SDS011;29964;17.182;-96.766;2023-02-11T10:36:39;0.17;;;0.03;;
44272;SDS011;29964;17.182;-96.766;2023-02-11T10:39:20;0.00;;;0.00;;
44272;SDS011;29964;17.182;-96.766;2023-02-11T10:46:51;0.00;;;0.00;;
44272;SDS011;29964;17.182;-96.766;2023-02-11T10:49:36;0.17;;;0.10;;
44272;SDS011;29964;17.182;-96.766;2023-02-11T10:57:40;0.37;;;0.20;;
44272;SDS011;29964;17.182;-96.766;2023-02-11T11:02:44;0.23;;;0.23;;
44272;SDS011;29964;17.182;-96.766;2023-02-11T11:07:50;0.00;;;0.00;;
44272;SDS011;29964;17.182;-96.766;2023-02-11T11:13:24;0.30;;;0.20;;
44272;SDS011;29964;17.182;-96.766;2023-02-11T11:16:14;0.10;;;0.10;;
44272;SDS011;29964;17.182;-96.766;2023-02-11T11:21:12;0.30;;;0.20;;
44272;SDS011;29964;17.182;-96.766;2023-02-11T11:23:45;1.03;;;0.20;;
44272;SDS011;29964;17.182;-96.766;2023-02-11T11:26:16;0.40;;;0.17;;
44272;SDS011;29964;17.182;-96.766;2023-02-11T11:29:45;0.00;;;0.00;;
44272;SDS011;29964;17.182;-96.766;2023-02-11T11:34:19;0.00;;;0.00;;
44272;SDS011;29964;17.182;-96.766;2023-02-11T11:36:47;0.00;;;0.00;;
44272;SDS011;29964;17.182;-96.766;2023-02-11T11:39:19;0.20;;;0.13;;
44272;SDS011;29964;17.182;-96.766;2023-02-11T11:42:31;0.50;;;0.17;;
44272;SDS011;29964;17.182;-96.766;2023-02-11T11:44:39;0.10;;;0.10;;
44272;SDS011;29964;17.182;-96.766;2023-02-11T11:49:48;0.30;;;0.17;;
44272;SDS011;29964;17.182;-96.766;2023-02-11T11:54:49;0.00;;;0.00;;
44272;SDS011;29964;17.182;-96.766;2023-02-11T11:57:21;0.20;;;0.20;;
44272;SDS011;29964;17.182;-96.766;2023-02-11T11:59:56;0.05;;;0.05;;
44272;SDS011;29964;17.182;-96.766;2023-02-11T12:02:44;0.30;;;0.30;;
44272;SDS011;29964;17.182;-96.766;2023-02-11T12:05:24;0.70;;;0.50;;
44272;SDS011;29964;17.182;-96.766;2023-02-11T12:08:04;1.07;;;0.50;;
44272;SDS011;29964;17.182;-96.766;2023-02-11T12:10:50;0.17;;;0.10;;
44272;SDS011;29964;17.182;-96.766;2023-02-11T12:13:39;0.90;;;0.47;;
44272;SDS011;29964;17.182;-96.766;2023-02-11T12:16:26;0.23;;;0.20;;
44272;SDS011;29964;17.182;-96.766;2023-02-11T12:19:15;1.13;;;0.73;;
44272;SDS011;29964;17.182;-96.766;2023-02-11T12:27:07;0.30;;;0.27;;
44272;SDS011;29964;17.182;-96.766;2023-02-11T12:32:13;0.10;;;0.10;;
44272;SDS011;29964;17.182;-96.766;2023-02-11T12:40:21;0.40;;;0.30;;
44272;SDS011;29964;17.182;-96.766;2023-02-11T12:46:43;0.00;;;0.00;;
44272;SDS011;29964;17.182;-96.766;2023-02-11T12:51:23;4.43;;;0.80;;
44272;SDS011;29964;17.182;-96.766;2023-02-11T12:54:05;1.47;;;0.30;;
44272;SDS011;29964;17.182;-96.766;2023-02-11T12:59:32;6.27;;;0.67;;
44272;SDS011;29964;17.182;-96.766;2023-02-11T13:01:58;0.87;;;0.63;;
44272;SDS011;29964;17.182;-96.766;2023-02-11T13:04:42;1.03;;;0.43;;
44272;SDS011;29964;17.182;-96.766;2023-02-11T13:07:55;0.77;;;0.28;;
44272;SDS011;29964;17.182;-96.766;2023-02-11T13:12:33;0.20;;;0.20;;
44272;SDS011;29964;17.182;-96.766;2023-02-11T13:15:19;3.47;;;0.50;;
44272;SDS011;29964;17.182;-96.766;2023-02-11T13:17:51;0.50;;;0.40;;
44272;SDS011;29964;17.182;-96.766;2023-02-11T13:20:34;10.63;;;0.65;;
44272;SDS011;29964;17.182;-96.766;2023-02-11T13:23:12;0.33;;;0.33;;
44272;SDS011;29964;17.182;-96.766;2023-02-11T13:25:50;0.53;;;0.43;;
44272;SDS011;29964;17.182;-96.766;2023-02-11T13:30:55;2.97;;;1.00;;
44272;SDS011;29964;17.182;-96.766;2023-02-11T13:38:37;1.03;;;0.80;;
44272;SDS011;29964;17.182;-96.766;2023-02-11T13:41:09;2.07;;;0.80;;
44272;SDS011;29964;17.182;-96.766;2023-02-11T13:43:57;0.20;;;0.20;;
44272;SDS011;29964;17.182;-96.766;2023-02-11T13:46:29;5.63;;;1.27;;
44272;SDS011;29964;17.182;-96.766;2023-02-11T13:49:14;11.70;;;0.60;;
44272;SDS011;29964;17.182;-96.766;2023-02-11T13:51:44;1.07;;;0.80;;
44272;SDS011;29964;17.182;-96.766;2023-02-11T13:54:18;8.87;;;1.17;;
44272;SDS011;29964;17.182;-96.766;2023-02-11T14:05:52;1.10;;;0.70;;
44272;SDS011;29964;17.182;-96.766;2023-02-11T14:08:21;0.87;;;0.70;;
44272;SDS011;29964;17.182;-96.766;2023-02-11T14:16:15;1.33;;;0.80;;
44272;SDS011;29964;17.182;-96.766;2023-02-11T14:40:32;0.67;;;0.50;;
44272;SDS011;29964;17.182;-96.766;2023-02-11T14:43:09;5.87;;;1.00;;
44272;SDS011;29964;17.182;-96.766;2023-02-11T14:45:37;2.37;;;1.03;;
44272;SDS011;29964;17.182;-96.766;2023-02-11T14:48:15;3.07;;;0.70;;
44272;SDS011;29964;17.182;-96.766;2023-02-11T14:50:52;2.53;;;0.87;;
44272;SDS011;29964;17.182;-96.766;2023-02-11T14:53:21;4.00;;;0.83;;
44272;SDS011;29964;17.182;-96.766;2023-02-11T14:55:53;3.00;;;0.97;;
44272;SDS011;29964;17.182;-96.766;2023-02-11T14:58:22;0.60;;;0.53;;
44272;SDS011;29964;17.182;-96.766;2023-02-11T15:00:54;0.50;;;0.40;;
44272;SDS011;29964;17.182;-96.766;2023-02-11T15:11:16;0.77;;;0.37;;
44272;SDS011;29964;17.182;-96.766;2023-02-11T15:13:44;2.63;;;0.63;;
44272;SDS011;29964;17.182;-96.766;2023-02-11T15:16:16;3.30;;;0.73;;
44272;SDS011;29964;17.182;-96.766;2023-02-11T15:18:46;12.17;;;0.70;;
44272;SDS011;29964;17.182;-96.766;2023-02-11T15:21:20;0.27;;;0.20;;
44272;SDS011;29964;17.182;-96.766;2023-02-11T15:23:55;0.43;;;0.40;;
44272;SDS011;29964;17.182;-96.766;2023-02-11T15:26:29;13.60;;;0.60;;
44272;SDS011;29964;17.182;-96.766;2023-02-11T15:28:56;0.77;;;0.50;;
44272;SDS011;29964;17.182;-96.766;2023-02-11T15:31:26;1.90;;;0.50;;
44272;SDS011;29964;17.182;-96.766;2023-02-11T15:33:54;0.67;;;0.47;;
44272;SDS011;29964;17.182;-96.766;2023-02-11T15:36:23;3.70;;;0.63;;
44272;SDS011;29964;17.182;-96.766;2023-02-11T15:41:45;0.53;;;0.30;;
44272;SDS011;29964;17.182;-96.766;2023-02-11T15:44:28;1.40;;;0.50;;
44272;SDS011;29964;17.182;-96.766;2023-02-11T15:46:55;0.83;;;0.50;;
44272;SDS011;29964;17.182;-96.766;2023-02-11T15:49:23;0.83;;;0.60;;
44272;SDS011;29964;17.182;-96.766;2023-02-11T15:51:54;0.87;;;0.57;;
44272;SDS011;29964;17.182;-96.766;2023-02-11T15:54:25;0.43;;;0.40;;
44272;SDS011;29964;17.182;-96.766;2023-02-11T15:57:03;1.08;;;0.45;;
44272;SDS011;29964;17.182;-96.766;2023-02-11T15:59:37;0.47;;;0.47;;
44272;SDS011;29964;17.182;-96.766;2023-02-11T16:04:51;0.70;;;0.50;;
44272;SDS011;29964;17.182;-96.766;2023-02-11T16:10:22;1.87;;;0.97;;
44272;SDS011;29964;17.182;-96.766;2023-02-11T16:12:50;0.70;;;0.43;;
44272;SDS011;29964;17.182;-96.766;2023-02-11T16:16:19;2.77;;;0.63;;
44272;SDS011;29964;17.182;-96.766;2023-02-11T16:20:53;0.50;;;0.40;;
44272;SDS011;29964;17.182;-96.766;2023-02-11T16:23:34;0.40;;;0.30;;
44272;SDS011;29964;17.182;-96.766;2023-02-11T16:26:05;5.93;;;0.63;;
44272;SDS011;29964;17.182;-96.766;2023-02-11T16:28:34;1.07;;;0.73;;
44272;SDS011;29964;17.182;-96.766;2023-02-11T16:31:02;7.50;;;1.13;;
44272;SDS011;29964;17.182;-96.766;2023-02-11T16:33:29;0.87;;;0.47;;
44272;SDS011;29964;17.182;-96.766;2023-02-11T16:35:57;1.53;;;0.50;;
44272;SDS011;29964;17.182;-96.766;2023-02-11T16:38:27;1.93;;;0.77;;
44272;SDS011;29964;17.182;-96.766;2023-02-11T16:40:55;0.60;;;0.40;;
44272;SDS011;29964;17.182;-96.766;2023-02-11T16:43:28;0.93;;;0.53;;
44272;SDS011;29964;17.182;-96.766;2023-02-11T16:45:58;1.33;;;0.40;;
44272;SDS011;29964;17.182;-96.766;2023-02-11T16:48:26;0.80;;;0.53;;
44272;SDS011;29964;17.182;-96.766;2023-02-11T16:50:53;4.63;;;0.67;;
44272;SDS011;29964;17.182;-96.766;2023-02-11T16:53:24;3.73;;;0.40;;
44272;SDS011;29964;17.182;-96.766;2023-02-11T16:55:52;1.20;;;0.77;;
44272;SDS011;29964;17.182;-96.766;2023-02-11T16:58:19;0.50;;;0.40;;
44272;SDS011;29964;17.182;-96.766;2023-02-11T17:00:50;1.33;;;0.53;;
44272;SDS011;29964;17.182;-96.766;2023-02-11T17:03:22;2.10;;;0.70;;
44272;SDS011;29964;17.182;-96.766;2023-02-11T17:05:50;1.10;;;0.77;;
44272;SDS011;29964;17.182;-96.766;2023-02-11T17:08:18;1.27;;;0.67;;
44272;SDS011;29964;17.182;-96.766;2023-02-11T17:10:49;2.73;;;1.13;;
44272;SDS011;29964;17.182;-96.766;2023-02-11T17:13:16;1.23;;;0.67;;
44272;SDS011;29964;17.182;-96.766;2023-02-11T17:15:46;2.47;;;0.53;;
44272;SDS011;29964;17.182;-96.766;2023-02-11T17:18:19;0.13;;;0.13;;
44272;SDS011;29964;17.182;-96.766;2023-02-11T17:20:46;1.37;;;0.83;;
44272;SDS011;29964;17.182;-96.766;2023-02-11T17:23:14;0.73;;;0.57;;
44272;SDS011;29964;17.182;-96.766;2023-02-11T17:25:41;0.83;;;0.43;;
44272;SDS011;29964;17.182;-96.766;2023-02-11T17:28:08;1.17;;;0.40;;
44272;SDS011;29964;17.182;-96.766;2023-02-11T17:30:38;1.37;;;0.77;;
44272;SDS011;29964;17.182;-96.766;2023-02-11T17:33:06;1.03;;;0.67;;